Elco, Pennsylvania
Current Conditions -  °F | °C
As of 1:19 PM on Thursday 29 Jan 2015 (Local Time) from KAGC Reporting Station
Light Rain Light Rain  
Wind Chill: 27°   Ceiling: 3300
Heat Index: 34°   Visibility: 4mi
Dew Point: 25°   Wind: 9mph
Humidity: 70%   Direction: 170°S
Pressure: 29.85"   Gusts: NA
Location:  40.08°N, 79.87°W
Report Text: KAGC 291819Z 17008KT 4SM -RA SCT029 BKN033 OVC043 01/M04 A2985 RMK AO2 RAB13FZRAE13 P0001 I1000 T00111039
Loading
Personal Weather Stations






























Interactive Weather Map New forecast layout! Learn more

10-Day Weather Forecast

Advertisements
Track Severe Weather on mobile